Time;durP1;ratioP1;P1;durP2;ratioP2;P2;SDS_P1;SDS_P2;PMS_P1;PMS_P2;Temp;Humidity;BMP_temperature;BMP_pressure;BME280_temperature;BME280_humidity;BME280_pressure;Samples;Min_cycle;Max_cycle;Signal;HPM_P1;HPM_P2
2023/05/20 00:01:12;;;;;;;2.30;2.10;;;14.50;55.80;;;;;;930591;152;27330;-75
2023/05/20 00:03:39;;;;;;;2.37;2.10;;;14.50;55.90;;;;;;930303;151;27492;-75
2023/05/20 00:06:06;;;;;;;1.83;1.73;;;14.50;56.00;;;;;;931743;152;27353;-75
2023/05/20 00:08:32;;;;;;;3.40;1.90;;;14.50;56.10;;;;;;931128;151;27516;-74
2023/05/20 00:10:59;;;;;;;3.07;2.50;;;14.50;56.30;;;;;;930982;152;27480;-74
2023/05/20 00:13:25;;;;;;;7.63;2.53;;;14.40;56.30;;;;;;930966;152;27458;-75
2023/05/20 00:15:52;;;;;;;2.10;1.80;;;14.40;56.40;;;;;;930674;152;27383;-75
2023/05/20 00:18:18;;;;;;;2.33;2.13;;;14.40;56.50;;;;;;930917;152;27388;-75
2023/05/20 00:20:45;;;;;;;3.90;1.97;;;14.40;56.60;;;;;;931075;151;27396;-75
2023/05/20 00:23:12;;;;;;;2.33;2.10;;;14.40;56.70;;;;;;930789;151;27364;-75
2023/05/20 00:25:38;;;;;;;4.13;2.20;;;14.40;56.80;;;;;;931139;152;27299;-75
2023/05/20 00:28:05;;;;;;;2.23;1.90;;;14.30;56.90;;;;;;931033;152;27455;-74
2023/05/20 00:30:31;;;;;;;2.73;1.97;;;14.30;57.00;;;;;;930175;152;27870;-74
2023/05/20 00:32:58;;;;;;;4.17;2.10;;;14.30;57.00;;;;;;927681;151;27452;-74
2023/05/20 00:35:24;;;;;;;2.10;1.90;;;14.30;57.10;;;;;;926910;151;27462;-75
2023/05/20 00:37:51;;;;;;;1.97;1.73;;;14.30;57.30;;;;;;926898;152;27388;-75
2023/05/20 00:40:18;;;;;;;2.00;1.70;;;14.30;57.40;;;;;;926568;152;27398;-74
2023/05/20 00:42:44;;;;;;;3.50;1.73;;;14.30;57.40;;;;;;927501;151;27416;-75
2023/05/20 00:45:11;;;;;;;2.60;2.37;;;14.30;57.30;;;;;;927702;151;27854;-74
2023/05/20 00:47:37;;;;;;;1.90;1.80;;;14.30;57.50;;;;;;927369;152;27356;-75
2023/05/20 00:50:04;;;;;;;2.80;1.97;;;14.30;57.60;;;;;;927426;152;27363;-74
2023/05/20 00:52:31;;;;;;;2.70;2.00;;;14.30;57.50;;;;;;927025;152;27441;-74
2023/05/20 00:54:58;;;;;;;2.87;2.20;;;14.30;57.60;;;;;;926963;152;27386;-75
2023/05/20 00:57:24;;;;;;;2.30;2.10;;;14.30;57.70;;;;;;927336;152;27370;-74
2023/05/20 00:59:50;;;;;;;2.60;2.03;;;14.40;57.90;;;;;;927213;152;27420;-74
2023/05/20 01:02:17;;;;;;;2.30;2.10;;;14.40;58.00;;;;;;927681;151;27406;-75
2023/05/20 01:04:46;;;;;;;2.30;2.10;;;14.40;58.10;;;;;;932636;149;27341;-75
2023/05/20 01:07:10;;;;;;;2.37;2.17;;;14.40;58.20;;;;;;931852;149;27304;-74
2023/05/20 01:09:37;;;;;;;2.30;2.10;;;14.40;58.20;;;;;;926819;152;27463;-75
2023/05/20 01:12:24;;;;;;;2.37;2.17;;;14.40;58.30;;;;;;926844;151;27470;-74
2023/05/20 01:15:09;;;;;;;2.40;1.93;;;14.40;58.20;;;;;;927133;152;27390;-75
2023/05/20 01:17:36;;;;;;;2.20;1.87;;;14.40;58.10;;;;;;927104;152;27796;-75
2023/05/20 01:20:03;;;;;;;2.73;2.03;;;14.40;58.00;;;;;;926623;152;27462;-74
2023/05/20 01:22:29;;;;;;;2.57;2.37;;;14.50;58.30;;;;;;933655;149;27864;-74
2023/05/20 01:24:55;;;;;;;3.20;2.27;;;14.50;58.40;;;;;;933933;149;27428;-75
2023/05/20 01:27:22;;;;;;;3.00;2.30;;;14.50;58.40;;;;;;934130;149;27359;-75
2023/05/20 01:29:51;;;;;;;2.20;2.10;;;14.50;58.50;;;;;;933467;149;27340;-75
2023/05/20 01:32:20;;;;;;;1.93;1.80;;;14.60;58.60;;;;;;945773;148;27447;-74
2023/05/20 01:34:47;;;;;;;3.43;1.70;;;14.60;58.70;;;;;;931064;151;27498;-75
2023/05/20 01:37:14;;;;;;;2.93;1.87;;;14.60;58.80;;;;;;929273;151;27382;-75
2023/05/20 01:39:43;;;;;;;3.63;2.27;;;14.70;58.80;;;;;;947534;148;27374;-74
2023/05/20 01:42:10;;;;;;;2.37;2.17;;;14.70;58.80;;;;;;947115;148;27442;-75
2023/05/20 01:44:36;;;;;;;2.47;2.20;;;14.80;58.80;;;;;;947279;148;27355;-74
2023/05/20 01:47:03;;;;;;;2.20;2.00;;;14.90;59.00;;;;;;947137;148;27372;-74
2023/05/20 01:49:29;;;;;;;1.97;1.87;;;14.90;58.80;;;;;;945862;151;27319;-75
2023/05/20 01:51:56;;;;;;;2.50;1.87;;;15.00;58.90;;;;;;946370;151;27351;-75
2023/05/20 01:54:23;;;;;;;2.87;1.97;;;15.00;59.10;;;;;;926787;152;27364;-75
2023/05/20 01:56:49;;;;;;;2.10;2.00;;;15.10;59.70;;;;;;929576;151;27399;-74
2023/05/20 01:59:16;;;;;;;2.53;2.27;;;15.20;59.10;;;;;;946665;149;27336;-75
2023/05/20 02:01:42;;;;;;;2.20;2.00;;;15.20;59.70;;;;;;946831;148;27328;-75
2023/05/20 02:04:09;;;;;;;2.37;2.17;;;15.30;59.20;;;;;;947188;148;27264;-75
2023/05/20 02:06:36;;;;;;;2.63;2.10;;;15.30;59.00;;;;;;947048;148;27367;-74
2023/05/20 02:09:02;;;;;;;2.05;1.95;;;15.40;59.00;;;;;;946937;148;27404;-76
2023/05/20 02:11:29;;;;;;;2.20;2.10;;;15.40;59.00;;;;;;925006;151;27387;-76
2023/05/20 02:13:55;;;;;;;2.12;1.92;;;15.50;59.00;;;;;;929838;151;27361;-76
2023/05/20 02:16:22;;;;;;;2.05;1.95;;;15.50;59.10;;;;;;926343;151;28198;-76
2023/05/20 02:18:51;;;;;;;2.25;2.05;;;15.50;59.00;;;;;;947555;148;27470;-76
2023/05/20 02:21:15;;;;;;;2.57;2.27;;;15.60;59.00;;;;;;946553;148;27366;-76
2023/05/20 02:23:42;;;;;;;2.58;2.37;;;15.60;59.00;;;;;;947635;148;27364;-76
2023/05/20 02:26:08;;;;;;;3.30;2.17;;;15.60;58.90;;;;;;947218;148;27336;-76
2023/05/20 02:28:37;;;;;;;2.47;2.27;;;15.70;59.00;;;;;;947277;149;27375;-76
2023/05/20 02:31:01;;;;;;;2.10;2.00;;;15.70;59.00;;;;;;947265;148;27445;-76
2023/05/20 02:33:28;;;;;;;2.30;2.10;;;15.70;59.00;;;;;;934538;150;27317;-77
2023/05/20 02:35:55;;;;;;;2.23;2.03;;;15.80;59.10;;;;;;934643;149;27334;-76
2023/05/20 02:38:21;;;;;;;2.30;2.10;;;15.80;59.10;;;;;;935110;149;27361;-76
2023/05/20 02:40:48;;;;;;;2.92;2.40;;;15.80;59.10;;;;;;934422;149;27370;-76
2023/05/20 02:43:14;;;;;;;2.50;2.30;;;15.80;59.30;;;;;;934956;149;27273;-76
2023/05/20 02:45:41;;;;;;;2.08;1.87;;;15.80;59.20;;;;;;934486;149;27430;-77
2023/05/20 02:48:08;;;;;;;2.33;2.23;;;15.90;59.80;;;;;;934796;149;27337;-76
2023/05/20 02:50:34;;;;;;;2.33;2.20;;;15.90;59.20;;;;;;934612;149;27362;-76
2023/05/20 02:53:01;;;;;;;2.30;2.10;;;15.90;59.30;;;;;;916804;152;27389;-76
2023/05/20 02:55:27;;;;;;;2.20;2.00;;;16.00;59.30;;;;;;935060;148;27403;-76
2023/05/20 02:57:54;;;;;;;2.12;1.92;;;16.00;59.30;;;;;;933767;150;27352;-76
2023/05/20 03:00:22;;;;;;;3.95;2.50;;;16.00;59.30;;;;;;934954;149;27372;-77
2023/05/20 03:02:47;;;;;;;2.22;2.02;;;16.10;59.30;;;;;;919134;152;27359;-76
2023/05/20 03:05:14;;;;;;;2.17;2.08;;;16.00;59.30;;;;;;917196;152;27444;-76
2023/05/20 03:07:40;;;;;;;2.98;2.22;;;16.10;59.30;;;;;;919436;152;27328;-76
2023/05/20 03:10:08;;;;;;;2.40;2.20;;;16.10;59.30;;;;;;912324;152;27447;-76
2023/05/20 03:12:34;;;;;;;2.42;1.92;;;16.10;59.30;;;;;;911316;153;27415;-76
2023/05/20 03:15:00;;;;;;;2.58;2.37;;;16.10;59.40;;;;;;917004;153;27386;-76
2023/05/20 03:17:27;;;;;;;5.05;2.25;;;16.10;59.40;;;;;;916912;152;27351;-76
2023/05/20 03:19:53;;;;;;;3.45;2.30;;;16.10;59.30;;;;;;919112;153;27426;-76
2023/05/20 03:22:20;;;;;;;2.47;2.20;;;16.10;59.40;;;;;;934277;150;27493;-76
2023/05/20 03:24:47;;;;;;;2.27;2.15;;;16.10;59.40;;;;;;912519;153;27401;-76
2023/05/20 03:27:13;;;;;;;3.37;2.50;;;16.10;59.50;;;;;;933981;149;27455;-76
2023/05/20 03:29:40;;;;;;;2.70;2.50;;;16.10;59.60;;;;;;910928;153;27383;-76
2023/05/20 03:32:06;;;;;;;2.60;2.40;;;16.10;59.60;;;;;;934899;149;27337;-76
2023/05/20 03:34:33;;;;;;;2.40;2.20;;;16.10;59.00;;;;;;935657;149;27369;-76
2023/05/20 03:37:00;;;;;;;3.70;2.25;;;16.10;59.60;;;;;;914006;152;27476;-76
2023/05/20 03:39:26;;;;;;;2.90;2.47;;;16.00;59.80;;;;;;934612;149;27346;-76
2023/05/20 03:41:53;;;;;;;2.40;2.23;;;16.10;59.80;;;;;;911345;152;27356;-76
2023/05/20 03:44:19;;;;;;;2.37;2.17;;;16.10;59.60;;;;;;918522;152;27347;-76
2023/05/20 03:46:46;;;;;;;3.83;2.27;;;16.00;59.90;;;;;;934684;149;27342;-76
2023/05/20 03:49:13;;;;;;;3.80;2.27;;;16.00;60.00;;;;;;912672;153;27332;-76
2023/05/20 03:51:39;;;;;;;2.80;2.60;;;16.00;60.00;;;;;;912529;153;27456;-76
2023/05/20 03:54:06;;;;;;;3.77;2.17;;;16.00;60.10;;;;;;934552;149;27314;-76
2023/05/20 03:56:32;;;;;;;3.83;2.63;;;16.00;60.10;;;;;;918519;152;27388;-76
2023/05/20 03:58:59;;;;;;;2.40;2.20;;;16.00;60.30;;;;;;932489;149;27443;-76
2023/05/20 04:01:25;;;;;;;2.50;2.30;;;16.00;60.30;;;;;;932182;149;27317;-76
2023/05/20 04:03:52;;;;;;;2.55;2.33;;;16.10;60.30;;;;;;927128;152;27443;-76
2023/05/20 04:06:19;;;;;;;2.60;2.27;;;16.10;60.40;;;;;;927200;152;27376;-76
2023/05/20 04:08:45;;;;;;;3.20;2.60;;;16.10;60.60;;;;;;927098;152;27409;-76
2023/05/20 04:11:12;;;;;;;2.67;2.42;;;16.10;60.70;;;;;;912594;153;27353;-76
2023/05/20 04:13:38;;;;;;;2.98;2.67;;;16.10;60.50;;;;;;934714;149;27352;-76
2023/05/20 04:16:05;;;;;;;2.90;2.40;;;16.20;60.70;;;;;;917840;152;27340;-76
2023/05/20 04:18:32;;;;;;;2.70;2.50;;;16.20;60.70;;;;;;935117;149;27453;-76
2023/05/20 04:21:00;;;;;;;2.70;2.50;;;16.20;60.90;;;;;;935147;149;27446;-76
2023/05/20 04:23:25;;;;;;;2.53;2.20;;;16.30;60.70;;;;;;934395;149;27414;-76
2023/05/20 04:25:51;;;;;;;2.50;2.30;;;16.30;60.80;;;;;;934959;150;27680;-76
2023/05/20 04:28:18;;;;;;;2.85;2.42;;;16.30;60.90;;;;;;935066;149;27426;-76
2023/05/20 04:30:45;;;;;;;2.80;2.60;;;16.30;60.90;;;;;;935124;149;27376;-76
2023/05/20 04:33:11;;;;;;;3.22;2.67;;;16.40;61.00;;;;;;938622;149;27348;-76
2023/05/20 04:35:40;;;;;;;2.65;2.40;;;16.40;61.00;;;;;;947341;149;27437;-76
2023/05/20 04:38:04;;;;;;;2.67;2.47;;;16.50;61.10;;;;;;947400;149;27421;-76
2023/05/20 04:40:31;;;;;;;3.33;2.90;;;16.50;61.10;;;;;;947106;148;27471;-76
2023/05/20 04:42:57;;;;;;;4.12;2.92;;;16.60;61.20;;;;;;946153;148;27440;-76
2023/05/20 04:45:24;;;;;;;2.50;2.30;;;16.60;61.20;;;;;;931910;151;27350;-76
2023/05/20 04:47:52;;;;;;;2.75;2.25;;;16.70;61.30;;;;;;935993;151;27316;-76
2023/05/20 04:50:18;;;;;;;2.75;2.55;;;16.80;61.30;;;;;;926385;152;27441;-76
2023/05/20 04:52:46;;;;;;;2.83;2.35;;;16.80;61.30;;;;;;947018;148;27352;-76
2023/05/20 04:55:10;;;;;;;2.35;2.22;;;16.90;61.20;;;;;;946460;149;27417;-76
2023/05/20 04:57:40;;;;;;;3.35;2.55;;;17.00;61.20;;;;;;946909;148;27320;-76
2023/05/20 05:00:09;;;;;;;3.02;2.67;;;17.10;61.10;;;;;;946698;148;27438;-76
2023/05/20 05:02:34;;;;;;;3.00;2.80;;;17.10;61.00;;;;;;946863;148;27405;-76
2023/05/20 05:05:01;;;;;;;2.70;2.50;;;17.20;61.00;;;;;;947917;148;27360;-76
2023/05/20 05:07:28;;;;;;;2.92;2.60;;;17.30;61.00;;;;;;946404;148;27464;-76
2023/05/20 05:09:54;;;;;;;2.67;2.47;;;17.40;60.90;;;;;;947033;148;27313;-76
2023/05/20 05:12:21;;;;;;;2.58;2.37;;;17.40;60.80;;;;;;930768;151;27412;-76
2023/05/20 05:14:47;;;;;;;2.90;2.70;;;17.50;60.70;;;;;;931306;151;27325;-76
2023/05/20 05:17:14;;;;;;;2.67;2.47;;;17.50;60.50;;;;;;930422;151;27398;-76
2023/05/20 05:19:40;;;;;;;2.83;2.60;;;17.50;60.50;;;;;;946793;148;27363;-76
2023/05/20 05:22:07;;;;;;;2.77;2.58;;;17.50;60.50;;;;;;947051;148;27344;-76
2023/05/20 05:24:34;;;;;;;3.47;3.17;;;17.50;60.70;;;;;;947361;149;27341;-76
2023/05/20 05:27:00;;;;;;;2.70;2.50;;;17.50;60.30;;;;;;947732;148;27410;-76
2023/05/20 05:29:27;;;;;;;2.60;2.40;;;17.50;60.40;;;;;;947503;148;27358;-76
2023/05/20 05:31:53;;;;;;;3.33;2.52;;;17.50;60.50;;;;;;946802;148;27454;-76
2023/05/20 05:34:20;;;;;;;3.08;2.80;;;17.50;60.50;;;;;;947387;148;27359;-76
2023/05/20 05:36:47;;;;;;;2.12;2.00;;;17.50;60.50;;;;;;947773;148;27312;-76
2023/05/20 05:39:13;;;;;;;2.33;2.12;;;17.50;60.60;;;;;;948078;148;27363;-76
2023/05/20 05:41:40;;;;;;;3.58;2.22;;;17.50;60.60;;;;;;947092;148;27400;-76
2023/05/20 05:44:06;;;;;;;2.58;2.35;;;17.50;60.70;;;;;;947735;148;27397;-76
2023/05/20 05:46:33;;;;;;;3.22;3.02;;;17.50;60.70;;;;;;947402;148;27292;-76
2023/05/20 05:49:00;;;;;;;3.10;2.60;;;17.50;60.80;;;;;;947222;148;27360;-76
2023/05/20 05:51:27;;;;;;;2.67;2.47;;;17.60;60.80;;;;;;947563;148;27433;-76
2023/05/20 05:53:53;;;;;;;2.62;2.42;;;17.60;60.80;;;;;;946804;148;27385;-76
2023/05/20 05:56:20;;;;;;;3.12;2.80;;;17.60;60.80;;;;;;947683;148;27332;-76
2023/05/20 05:58:47;;;;;;;2.95;2.65;;;17.60;60.80;;;;;;946965;148;27344;-76
2023/05/20 06:01:12;;;;;;;3.08;2.77;;;17.60;60.80;;;;;;946998;148;27459;-76
2023/05/20 06:03:39;;;;;;;3.37;2.70;;;17.60;60.90;;;;;;946988;149;27277;-76
2023/05/20 06:06:06;;;;;;;4.20;2.55;;;17.60;61.00;;;;;;947153;148;27381;-76
2023/05/20 06:08:32;;;;;;;3.05;2.75;;;17.60;61.00;;;;;;947186;148;27348;-76
2023/05/20 06:10:59;;;;;;;6.17;3.08;;;17.70;61.10;;;;;;947488;148;27336;-76
2023/05/20 06:13:25;;;;;;;3.00;2.70;;;17.70;61.00;;;;;;927941;151;27373;-76
2023/05/20 06:15:52;;;;;;;3.30;3.00;;;17.70;61.00;;;;;;945575;151;27276;-76
2023/05/20 06:18:19;;;;;;;3.20;2.67;;;17.70;61.00;;;;;;945141;151;27342;-76
2023/05/20 06:20:45;;;;;;;3.00;2.80;;;17.70;61.00;;;;;;946718;151;27303;-76
2023/05/20 06:23:12;;;;;;;7.30;2.98;;;17.80;61.20;;;;;;946478;148;27461;-76
2023/05/20 06:25:38;;;;;;;2.87;2.67;;;17.80;61.10;;;;;;946433;151;27396;-75
2023/05/20 06:28:05;;;;;;;3.52;2.90;;;17.80;61.20;;;;;;945401;151;27336;-75
2023/05/20 06:30:32;;;;;;;2.85;2.65;;;17.90;61.30;;;;;;945754;151;27320;-75
2023/05/20 06:32:58;;;;;;;3.67;2.77;;;18.00;61.40;;;;;;945137;151;27386;-75
2023/05/20 06:35:25;;;;;;;3.40;3.10;;;18.00;61.40;;;;;;922690;151;27417;-75
2023/05/20 06:37:51;;;;;;;4.15;3.10;;;18.10;61.50;;;;;;931172;151;27365;-76
2023/05/20 06:40:18;;;;;;;3.60;2.75;;;18.30;61.80;;;;;;936240;150;27843;-75
2023/05/20 06:42:45;;;;;;;2.67;2.47;;;18.50;62.10;;;;;;927371;152;27452;-75
2023/05/20 06:45:12;;;;;;;3.17;2.87;;;18.70;62.30;;;;;;927983;152;27471;-75
2023/05/20 06:47:38;;;;;;;3.70;3.08;;;19.00;62.20;;;;;;927485;152;27446;-75
2023/05/20 06:50:04;;;;;;;2.90;2.60;;;19.30;61.90;;;;;;928213;152;27328;-75
2023/05/20 06:52:31;;;;;;;3.12;2.80;;;19.60;61.50;;;;;;946794;148;27461;-75
2023/05/20 06:54:57;;;;;;;3.58;2.70;;;19.90;61.30;;;;;;947056;149;27340;-76
2023/05/20 06:57:24;;;;;;;2.98;2.75;;;20.20;61.10;;;;;;947178;148;27409;-76
2023/05/20 06:59:51;;;;;;;3.20;3.00;;;20.50;60.80;;;;;;948101;148;27272;-76
2023/05/20 07:02:17;;;;;;;2.85;2.62;;;20.90;60.30;;;;;;946772;148;27273;-76
2023/05/20 07:04:44;;;;;;;3.27;2.98;;;21.20;59.90;;;;;;947455;148;27364;-76
2023/05/20 07:07:10;;;;;;;2.92;2.72;;;21.50;59.50;;;;;;946847;148;27454;-76
2023/05/20 07:09:37;;;;;;;3.00;2.70;;;21.90;59.20;;;;;;946980;148;27404;-76
2023/05/20 07:12:04;;;;;;;3.15;2.85;;;22.20;58.80;;;;;;947356;148;27689;-76
2023/05/20 07:14:30;;;;;;;2.58;2.37;;;22.60;59.20;;;;;;946991;149;27453;-76
2023/05/20 07:16:57;;;;;;;2.70;2.50;;;23.00;58.90;;;;;;947884;148;27448;-76
2023/05/20 07:19:23;;;;;;;2.98;2.77;;;23.50;58.70;;;;;;930294;151;27398;-76
2023/05/20 07:21:50;;;;;;;3.25;2.95;;;24.10;58.30;;;;;;947487;148;27299;-76
2023/05/20 07:24:17;;;;;;;2.42;2.30;;;24.70;58.00;;;;;;947037;148;27406;-76
2023/05/20 07:26:43;;;;;;;3.00;2.70;;;25.40;57.10;;;;;;945925;148;27459;-76
2023/05/20 07:29:10;;;;;;;2.87;2.65;;;25.90;55.70;;;;;;946261;148;27463;-76
2023/05/20 07:31:36;;;;;;;3.20;2.50;;;26.30;54.60;;;;;;946756;148;27439;-76
2023/05/20 07:34:03;;;;;;;2.70;2.50;;;26.50;53.30;;;;;;946926;148;27325;-76
2023/05/20 07:36:29;;;;;;;2.87;2.67;;;26.70;52.80;;;;;;937040;149;27430;-76
2023/05/20 07:38:56;;;;;;;2.85;2.65;;;26.70;52.20;;;;;;932819;149;27353;-76
2023/05/20 07:41:23;;;;;;;2.80;2.60;;;26.70;51.90;;;;;;932662;149;27372;-76
2023/05/20 07:43:49;;;;;;;2.60;2.40;;;26.70;51.60;;;;;;932756;149;27340;-76
2023/05/20 07:46:16;;;;;;;2.65;2.45;;;26.70;52.30;;;;;;932146;149;27634;-76
2023/05/20 07:48:43;;;;;;;2.87;2.67;;;26.80;51.50;;;;;;932320;149;27728;-76
2023/05/20 07:51:09;;;;;;;2.70;2.50;;;26.80;51.40;;;;;;933034;149;27297;-76
2023/05/20 07:53:36;;;;;;;3.00;2.80;;;26.90;51.30;;;;;;933249;149;27418;-76
2023/05/20 07:56:02;;;;;;;2.87;2.67;;;27.00;51.10;;;;;;932649;149;27294;-76
2023/05/20 07:58:30;;;;;;;3.37;3.08;;;27.00;51.20;;;;;;933346;149;27891;-76
2023/05/20 08:00:55;;;;;;;3.87;3.15;;;27.10;51.10;;;;;;932902;149;27364;-76
2023/05/20 08:03:22;;;;;;;3.08;2.87;;;27.20;50.60;;;;;;932345;149;27997;-76
2023/05/20 08:05:49;;;;;;;2.90;2.70;;;27.20;50.00;;;;;;932897;149;27261;-76
2023/05/20 08:08:16;;;;;;;3.33;2.55;;;27.10;49.70;;;;;;933117;149;27357;-76
2023/05/20 08:10:42;;;;;;;3.15;2.85;;;26.90;49.50;;;;;;933887;149;27384;-76
2023/05/20 08:13:08;;;;;;;3.85;3.17;;;26.70;49.50;;;;;;932546;149;27262;-76
2023/05/20 08:15:35;;;;;;;3.47;3.17;;;26.60;49.50;;;;;;933143;149;27449;-76
2023/05/20 08:18:01;;;;;;;5.70;2.87;;;26.40;49.70;;;;;;932489;149;27337;-76
2023/05/20 08:20:28;;;;;;;3.25;3.05;;;26.20;49.90;;;;;;932557;149;27372;-75
2023/05/20 08:22:55;;;;;;;3.62;3.25;;;26.20;50.40;;;;;;911619;153;27347;-76
2023/05/20 08:25:22;;;;;;;3.72;3.42;;;26.20;50.50;;;;;;926066;151;27393;-76
2023/05/20 08:27:48;;;;;;;2.95;2.75;;;26.20;50.40;;;;;;926381;152;27385;-76
2023/05/20 08:30:14;;;;;;;3.37;3.10;;;26.20;50.10;;;;;;926393;152;27464;-76
2023/05/20 08:32:41;;;;;;;3.50;3.20;;;26.20;49.90;;;;;;926361;152;27531;-76
2023/05/20 08:35:08;;;;;;;6.47;3.35;;;26.10;50.10;;;;;;925933;152;27392;-76
2023/05/20 08:37:34;;;;;;;3.42;3.12;;;26.10;50.30;;;;;;926107;151;27483;-76
2023/05/20 08:40:01;;;;;;;3.30;3.10;;;26.00;50.00;;;;;;926443;152;27374;-76
2023/05/20 08:42:27;;;;;;;5.05;3.35;;;25.90;49.80;;;;;;925673;151;27389;-76
2023/05/20 08:44:54;;;;;;;3.20;2.98;;;25.80;49.70;;;;;;926999;151;27731;-76
2023/05/20 08:47:23;;;;;;;3.50;3.20;;;25.70;49.80;;;;;;926177;151;27455;-76
2023/05/20 08:49:50;;;;;;;3.30;3.10;;;25.50;49.90;;;;;;926688;151;27329;-76
2023/05/20 08:52:19;;;;;;;3.10;2.90;;;25.40;50.10;;;;;;911800;153;27402;-76
2023/05/20 08:54:46;;;;;;;3.65;3.27;;;25.40;50.80;;;;;;934270;149;27356;-76
2023/05/20 08:57:12;;;;;;;4.15;3.60;;;25.30;50.30;;;;;;934712;149;27407;-76
2023/05/20 08:59:45;;;;;;;3.55;3.25;;;25.30;50.20;;;;;;934105;149;27346;-76
2023/05/20 09:02:11;;;;;;;3.70;3.40;;;25.40;50.90;;;;;;935240;149;27358;-76
2023/05/20 09:04:38;;;;;;;4.08;3.60;;;25.40;50.60;;;;;;934471;149;27319;-77
2023/05/20 09:07:05;;;;;;;3.47;3.15;;;25.50;50.50;;;;;;911634;153;27875;-76
2023/05/20 09:09:34;;;;;;;4.33;3.72;;;25.60;50.40;;;;;;926346;152;27484;-76
2023/05/20 09:12:01;;;;;;;4.97;3.37;;;25.70;50.70;;;;;;927172;152;27881;-76
2023/05/20 09:14:27;;;;;;;3.52;3.27;;;25.80;50.50;;;;;;926938;151;27432;-77
2023/05/20 09:16:54;;;;;;;3.30;3.00;;;26.00;50.20;;;;;;927229;152;27413;-77
2023/05/20 09:19:20;;;;;;;3.52;3.22;;;26.10;49.80;;;;;;927029;152;27357;-77
2023/05/20 09:21:47;;;;;;;3.90;3.60;;;26.10;49.50;;;;;;926025;151;27456;-77
2023/05/20 09:24:13;;;;;;;3.58;3.27;;;26.20;49.50;;;;;;926141;152;27446;-77
2023/05/20 09:26:40;;;;;;;3.70;3.40;;;26.20;49.70;;;;;;911996;153;27436;-75
2023/05/20 09:29:07;;;;;;;3.70;3.50;;;26.30;49.80;;;;;;934336;150;27621;-75
2023/05/20 09:31:34;;;;;;;3.67;3.37;;;26.60;50.10;;;;;;934256;150;27444;-75
2023/05/20 09:34:00;;;;;;;3.55;3.25;;;26.90;50.20;;;;;;918255;152;27387;-75
2023/05/20 09:36:26;;;;;;;3.33;3.02;;;27.10;50.00;;;;;;918610;152;27468;-75
2023/05/20 09:38:53;;;;;;;5.08;3.37;;;27.40;49.60;;;;;;910932;153;27290;-75
2023/05/20 09:41:20;;;;;;;3.45;3.15;;;27.50;48.90;;;;;;911553;153;27418;-75
2023/05/20 09:43:46;;;;;;;3.95;3.60;;;27.60;48.50;;;;;;926206;151;27374;-75
2023/05/20 09:46:13;;;;;;;3.70;3.40;;;27.60;48.00;;;;;;926738;152;27411;-75
2023/05/20 09:48:39;;;;;;;3.45;3.25;;;27.50;47.90;;;;;;927086;151;27319;-75
2023/05/20 09:51:06;;;;;;;3.52;3.22;;;27.40;47.70;;;;;;927165;151;27338;-75
2023/05/20 09:53:32;;;;;;;4.72;3.65;;;27.30;47.60;;;;;;911768;153;27434;-75
2023/05/20 09:55:59;;;;;;;4.33;3.95;;;27.10;47.20;;;;;;929706;150;27444;-75
2023/05/20 09:58:26;;;;;;;4.17;3.77;;;26.90;47.30;;;;;;916838;153;27383;-75
2023/05/20 10:00:52;;;;;;;4.22;3.90;;;26.70;47.50;;;;;;915722;153;27457;-75
2023/05/20 10:03:19;;;;;;;3.50;3.30;;;26.50;47.60;;;;;;933093;149;27318;-75
2023/05/20 10:05:48;;;;;;;4.17;3.87;;;26.40;47.90;;;;;;920056;152;27398;-75
2023/05/20 10:08:21;;;;;;;3.62;3.33;;;26.30;48.10;;;;;;918359;152;27376;-75
2023/05/20 10:10:50;;;;;;;4.20;3.80;;;26.20;48.10;;;;;;911529;153;27876;-75
2023/05/20 10:13:35;;;;;;;3.80;3.47;;;26.20;48.40;;;;;;926125;152;27510;-75
2023/05/20 10:16:04;;;;;;;4.20;3.80;;;26.20;48.80;;;;;;927812;152;27399;-75
2023/05/20 10:18:48;;;;;;;4.95;4.55;;;26.20;49.00;;;;;;918446;152;27431;-75
2023/05/20 10:21:15;;;;;;;4.05;3.75;;;26.40;49.00;;;;;;918908;152;27360;-75
2023/05/20 10:23:41;;;;;;;4.28;3.92;;;26.50;48.90;;;;;;923171;152;27374;-75
2023/05/20 10:26:08;;;;;;;4.42;4.12;;;26.60;48.60;;;;;;919199;152;27403;-75
2023/05/20 10:28:37;;;;;;;4.20;3.90;;;26.70;48.30;;;;;;934319;149;27350;-75
2023/05/20 10:31:16;;;;;;;4.12;3.83;;;26.70;48.10;;;;;;911035;152;27379;-75
2023/05/20 10:33:46;;;;;;;4.00;3.70;;;26.70;47.90;;;;;;916610;152;27390;-75
2023/05/20 10:36:29;;;;;;;4.67;4.12;;;26.70;47.80;;;;;;933518;149;27361;-75
2023/05/20 10:38:57;;;;;;;4.00;3.70;;;26.70;47.90;;;;;;933690;150;27478;-74
2023/05/20 10:41:26;;;;;;;4.47;4.17;;;26.60;47.80;;;;;;934367;149;27781;-75
2023/05/20 10:44:02;;;;;;;4.58;4.17;;;26.60;48.30;;;;;;934215;149;27364;-75
2023/05/20 10:46:29;;;;;;;3.80;3.60;;;26.60;48.00;;;;;;919498;152;27385;-75
2023/05/20 10:48:56;;;;;;;4.30;3.92;;;26.60;48.20;;;;;;911814;153;27507;-75
2023/05/20 10:51:22;;;;;;;4.20;3.90;;;26.60;48.30;;;;;;934404;149;27451;-74
2023/05/20 10:53:49;;;;;;;3.98;3.67;;;26.60;48.00;;;;;;935262;149;27762;-74
2023/05/20 10:56:21;;;;;;;5.03;4.62;;;26.60;48.00;;;;;;934595;149;27763;-75
2023/05/20 10:58:48;;;;;;;4.92;4.15;;;26.70;48.00;;;;;;933583;149;27352;-75
2023/05/20 11:01:15;;;;;;;4.60;3.50;;;26.70;47.80;;;;;;933343;149;27297;-75
2023/05/20 11:03:41;;;;;;;4.40;4.00;;;26.60;47.60;;;;;;934954;149;27435;-75
2023/05/20 11:06:10;;;;;;;4.10;3.80;;;26.60;47.60;;;;;;933470;149;27324;-75
2023/05/20 11:08:37;;;;;;;4.40;4.00;;;26.60;47.90;;;;;;932901;149;27940;-75
2023/05/20 11:11:04;;;;;;;4.28;3.98;;;26.60;48.60;;;;;;933913;149;27293;-75
2023/05/20 11:13:30;;;;;;;4.17;3.87;;;26.60;48.00;;;;;;933498;149;27343;-75
2023/05/20 11:15:58;;;;;;;4.22;3.90;;;26.70;47.80;;;;;;934078;149;27316;-75
2023/05/20 11:18:23;;;;;;;4.33;3.95;;;26.70;47.50;;;;;;932548;149;27365;-75
2023/05/20 11:20:50;;;;;;;4.55;4.10;;;26.70;47.40;;;;;;933139;149;27788;-74
2023/05/20 11:23:17;;;;;;;4.17;3.87;;;26.70;47.30;;;;;;933233;149;27329;-74
2023/05/20 11:25:43;;;;;;;4.87;4.42;;;26.70;47.40;;;;;;934006;149;27261;-75
2023/05/20 11:28:13;;;;;;;4.05;3.75;;;26.60;47.50;;;;;;933716;149;27377;-75
2023/05/20 11:30:39;;;;;;;4.10;3.80;;;26.60;47.40;;;;;;932893;149;27426;-76
2023/05/20 11:33:05;;;;;;;4.65;4.25;;;26.50;47.50;;;;;;932150;149;27321;-76
2023/05/20 11:35:32;;;;;;;5.05;4.30;;;26.50;47.60;;;;;;932865;149;27694;-76
2023/05/20 11:38:05;;;;;;;4.03;3.72;;;26.50;47.60;;;;;;933182;149;27501;-76
2023/05/20 11:40:31;;;;;;;4.25;3.85;;;26.50;47.40;;;;;;943622;147;27484;-76
2023/05/20 11:42:57;;;;;;;4.15;3.85;;;26.50;47.30;;;;;;952556;147;27277;-76
2023/05/20 11:45:24;;;;;;;4.42;4.03;;;26.50;47.50;;;;;;953541;147;27457;-76
2023/05/20 11:48:02;;;;;;;4.12;3.72;;;26.50;47.70;;;;;;953304;147;27366;-76
2023/05/20 11:50:29;;;;;;;4.33;4.03;;;26.50;47.70;;;;;;935673;150;27374;-76
2023/05/20 11:52:59;;;;;;;4.10;3.87;;;26.50;47.60;;;;;;931622;151;27922;-76
2023/05/20 11:55:25;;;;;;;3.80;3.50;;;26.50;47.50;;;;;;949583;148;27472;-76
2023/05/20 11:57:52;;;;;;;4.25;3.95;;;26.50;47.50;;;;;;948900;151;27363;-76
2023/05/20 12:00:19;;;;;;;4.42;4.03;;;26.50;47.50;;;;;;948169;151;27412;-76
2023/05/20 12:02:45;;;;;;;4.33;4.03;;;26.50;47.60;;;;;;935527;150;27664;-76
2023/05/20 12:05:12;;;;;;;4.50;3.77;;;26.50;47.50;;;;;;936723;150;27355;-76
2023/05/20 12:07:38;;;;;;;4.20;3.90;;;26.50;47.70;;;;;;953841;147;27363;-76
2023/05/20 12:10:05;;;;;;;4.53;4.12;;;26.50;47.50;;;;;;934686;151;27390;-76
2023/05/20 12:12:31;;;;;;;4.08;3.77;;;26.40;46.60;;;;;;935423;150;27732;-76
2023/05/20 12:14:58;;;;;;;4.20;3.90;;;26.40;47.40;;;;;;951891;148;27323;-76
2023/05/20 12:17:24;;;;;;;4.40;4.10;;;26.30;47.50;;;;;;951948;148;27363;-76
2023/05/20 12:19:51;;;;;;;4.15;3.85;;;26.30;47.80;;;;;;951936;148;27391;-76
2023/05/20 12:22:18;;;;;;;4.37;4.08;;;26.30;48.50;;;;;;938821;150;27302;-76
2023/05/20 12:24:44;;;;;;;3.87;3.58;;;26.40;48.00;;;;;;951844;148;27823;-76
2023/05/20 12:27:11;;;;;;;4.30;4.00;;;26.50;48.00;;;;;;951890;147;27372;-76
2023/05/20 12:29:37;;;;;;;4.83;3.80;;;26.60;48.00;;;;;;952321;148;27364;-76
2023/05/20 12:32:04;;;;;;;4.45;3.95;;;26.60;47.90;;;;;;951555;148;27323;-76
2023/05/20 12:34:31;;;;;;;4.25;3.77;;;26.70;47.70;;;;;;927575;150;27471;-76
2023/05/20 12:36:57;;;;;;;4.75;4.05;;;26.70;47.60;;;;;;935719;150;27443;-76
2023/05/20 12:39:24;;;;;;;4.53;4.15;;;26.70;47.60;;;;;;951773;148;27698;-76
2023/05/20 12:41:51;;;;;;;4.15;3.85;;;26.70;47.60;;;;;;927599;152;27857;-76
2023/05/20 12:44:17;;;;;;;4.30;3.90;;;26.70;47.30;;;;;;927154;151;27294;-76
2023/05/20 12:46:44;;;;;;;4.62;4.22;;;26.60;47.20;;;;;;946662;148;27357;-76